Time;durP1;ratioP1;P1;durP2;ratioP2;P2;SDS_P1;SDS_P2;PMS_P1;PMS_P2;Temp;Humidity;BMP_temperature;BMP_pressure;BME280_temperature;BME280_humidity;BME280_pressure;Samples;Min_cycle;Max_cycle;Signal;HPM_P1;HPM_P2
2024/03/25 00:02:01;;;;;;;10.03;5.20;;;9.20;80.60;;;;;;6306501;22;20022;-66
2024/03/25 00:04:27;;;;;;;10.57;5.00;;;9.10;80.20;;;;;;6306820;22;19999;-66
2024/03/25 00:06:53;;;;;;;9.37;5.67;;;9.10;80.80;;;;;;6306684;22;20007;-66
2024/03/25 00:09:20;;;;;;;8.10;4.53;;;9.10;81.80;;;;;;6305294;22;20058;-66
2024/03/25 00:11:46;;;;;;;15.60;5.57;;;9.10;82.80;;;;;;6306633;22;20326;-65
2024/03/25 00:14:12;;;;;;;10.27;5.70;;;9.00;82.30;;;;;;6306068;22;20078;-65
2024/03/25 00:16:37;;;;;;;10.70;5.40;;;9.00;83.10;;;;;;6305088;22;20023;-66
2024/03/25 00:19:03;;;;;;;9.27;5.07;;;8.90;83.30;;;;;;6304880;22;20104;-65
2024/03/25 00:21:29;;;;;;;8.53;4.87;;;8.90;83.30;;;;;;6306806;22;20022;-66
2024/03/25 00:23:57;;;;;;;7.27;4.43;;;8.90;83.50;;;;;;6306938;22;20077;-65
2024/03/25 00:26:23;;;;;;;9.37;4.90;;;8.80;83.30;;;;;;6306898;22;20122;-66
2024/03/25 00:28:49;;;;;;;8.30;4.53;;;8.80;83.50;;;;;;6307691;22;20380;-66
2024/03/25 00:31:15;;;;;;;8.07;4.90;;;8.80;84.00;;;;;;6307531;22;20026;-65
2024/03/25 00:33:44;;;;;;;10.33;4.90;;;8.80;83.80;;;;;;6307237;22;20003;-66
2024/03/25 00:36:25;;;;;;;10.47;4.47;;;8.70;83.60;;;;;;6307115;22;20295;-65
2024/03/25 00:39:32;;;;;;;8.00;4.83;;;8.80;83.50;;;;;;6307020;22;20054;-65
2024/03/25 00:45:30;;;;;;;;;;;;;;;;;;;;;
2024/03/25 00:48:32;;;;;;;17.20;9.37;;;8.70;84.40;;;;;;6182891;23;20473;-65
2024/03/25 00:51:10;;;;;;;14.27;7.70;;;8.60;85.70;;;;;;6176078;23;20036;-66
2024/03/25 00:53:39;;;;;;;8.93;5.70;;;8.60;83.80;;;;;;6306620;22;20353;-66
2024/03/25 00:56:05;;;;;;;9.60;5.57;;;8.60;84.50;;;;;;6306186;22;20003;-66
2024/03/25 00:58:45;;;;;;;10.97;5.37;;;8.50;85.10;;;;;;6306560;22;20027;-66
2024/03/25 01:01:13;;;;;;;10.30;5.73;;;8.50;85.20;;;;;;6305748;22;20000;-65
2024/03/25 01:03:40;;;;;;;10.03;6.17;;;8.50;84.50;;;;;;6306980;22;20329;-66
2024/03/25 01:06:05;;;;;;;9.87;6.23;;;8.50;84.70;;;;;;6306705;22;20321;-66
2024/03/25 01:08:31;;;;;;;13.83;7.07;;;8.40;85.20;;;;;;6306765;22;20064;-66
2024/03/25 01:10:57;;;;;;;12.17;5.93;;;8.40;85.50;;;;;;6306824;22;19995;-65
2024/03/25 01:13:23;;;;;;;16.50;5.63;;;8.40;85.60;;;;;;6306661;22;20031;-65
2024/03/25 01:15:49;;;;;;;17.77;5.43;;;8.40;85.60;;;;;;6306117;22;19995;-66
2024/03/25 01:18:14;;;;;;;16.70;5.50;;;8.40;85.50;;;;;;6306788;22;20007;-65
2024/03/25 01:20:40;;;;;;;7.23;4.23;;;8.40;85.40;;;;;;6273716;22;20088;-66
2024/03/25 01:23:06;;;;;;;8.03;4.73;;;8.40;85.50;;;;;;6275776;22;20000;-65
2024/03/25 01:25:31;;;;;;;10.83;4.57;;;8.30;85.00;;;;;;6275274;22;20003;-67
2024/03/25 01:27:57;;;;;;;8.90;5.03;;;8.40;86.10;;;;;;6275271;22;20018;-67
2024/03/25 01:30:23;;;;;;;9.17;4.87;;;8.30;86.40;;;;;;6275727;22;20011;-66
2024/03/25 01:32:49;;;;;;;8.60;4.03;;;8.30;86.10;;;;;;6275705;22;20050;-65
2024/03/25 01:35:15;;;;;;;8.10;4.47;;;8.30;85.70;;;;;;6263708;22;20007;-66
2024/03/25 01:37:42;;;;;;;7.57;4.40;;;8.30;87.00;;;;;;6275409;22;20426;-67
2024/03/25 01:40:10;;;;;;;8.60;4.20;;;8.20;87.30;;;;;;6306116;22;19995;-66
2024/03/25 01:42:36;;;;;;;9.87;4.77;;;8.10;87.30;;;;;;6306749;22;20038;-76
2024/03/25 01:45:03;;;;;;;9.10;4.30;;;8.10;87.40;;;;;;6306275;22;20090;-78
2024/03/25 01:47:32;;;;;;;9.30;4.10;;;8.00;87.80;;;;;;6305164;22;20085;-77
2024/03/25 01:49:58;;;;;;;6.70;3.37;;;8.00;88.70;;;;;;6306091;22;19991;-76
2024/03/25 01:52:25;;;;;;;5.63;3.57;;;7.90;88.20;;;;;;6306400;22;20094;-77
2024/03/25 01:54:52;;;;;;;6.03;3.60;;;7.90;88.00;;;;;;6307110;22;20325;-77
2024/03/25 01:57:19;;;;;;;6.07;3.10;;;7.90;87.60;;;;;;6308629;22;19995;-76
2024/03/25 01:59:44;;;;;;;7.20;3.43;;;7.90;87.30;;;;;;6304050;22;20376;-77
2024/03/25 02:02:11;;;;;;;5.33;3.50;;;7.80;88.00;;;;;;6304922;22;20030;-75
2024/03/25 02:04:39;;;;;;;6.03;3.73;;;7.70;89.40;;;;;;6306590;22;19996;-65
2024/03/25 02:07:07;;;;;;;6.93;3.07;;;7.70;89.50;;;;;;6308409;22;20007;-66
2024/03/25 02:09:35;;;;;;;5.67;3.33;;;7.70;89.50;;;;;;6308919;22;20057;-65
2024/03/25 02:12:02;;;;;;;8.23;3.23;;;7.60;89.00;;;;;;6309119;22;20003;-65
2024/03/25 02:14:28;;;;;;;5.80;3.10;;;7.60;89.30;;;;;;6308815;22;20000;-66
2024/03/25 02:26:47;;;;;;;17.87;4.63;;;7.50;90.10;;;;;;6265939;22;20077;-65
2024/03/25 02:30:05;;;;;;;10.37;4.77;;;7.60;90.30;;;;;;6277098;22;20079;-66
2024/03/25 02:32:53;;;;;;;11.70;4.63;;;7.60;90.60;;;;;;6081070;22;20057;-66
2024/03/25 02:35:22;;;;;;;11.67;4.50;;;7.50;90.40;;;;;;6276013;22;20110;-66
2024/03/25 02:38:00;;;;;;;13.63;4.37;;;7.60;90.30;;;;;;6274806;22;20008;-66
2024/03/25 02:40:51;;;;;;;11.33;4.07;;;7.60;90.10;;;;;;6275275;22;20074;-64
2024/03/25 02:43:21;;;;;;;12.40;3.87;;;7.50;89.80;;;;;;6224863;22;20388;-66
2024/03/25 02:45:47;;;;;;;9.13;3.87;;;7.50;90.30;;;;;;6277224;22;20368;-65
2024/03/25 02:48:13;;;;;;;7.47;3.63;;;7.50;90.80;;;;;;6277037;22;20360;-66
2024/03/25 02:50:39;;;;;;;8.03;3.90;;;7.50;90.30;;;;;;6277037;22;20031;-66
2024/03/25 02:53:05;;;;;;;7.57;3.73;;;7.40;90.50;;;;;;6276930;22;20003;-66
2024/03/25 02:55:32;;;;;;;13.57;4.20;;;7.40;90.90;;;;;;6277399;22;20011;-65
2024/03/25 02:57:58;;;;;;;6.60;3.63;;;7.40;91.30;;;;;;6277080;22;20057;-66
2024/03/25 03:00:23;;;;;;;6.40;3.40;;;7.40;90.90;;;;;;6276576;22;20004;-65
2024/03/25 03:02:49;;;;;;;6.13;3.10;;;7.50;90.80;;;;;;6276620;22;20468;-66
2024/03/25 03:05:16;;;;;;;5.03;2.97;;;7.50;90.80;;;;;;6276434;22;20007;-69
2024/03/25 03:07:41;;;;;;;6.50;2.63;;;7.50;90.90;;;;;;6274672;22;20338;-66
2024/03/25 03:10:08;;;;;;;4.67;2.77;;;7.50;90.80;;;;;;6276189;22;20003;-66
2024/03/25 03:12:33;;;;;;;5.83;3.10;;;7.50;90.30;;;;;;6276585;22;20426;-66
2024/03/25 03:14:59;;;;;;;4.20;2.60;;;7.50;90.20;;;;;;6276125;22;20114;-66
2024/03/25 03:17:25;;;;;;;5.47;2.87;;;7.50;90.80;;;;;;6276708;22;20014;-66
2024/03/25 03:19:50;;;;;;;5.40;2.70;;;7.50;90.90;;;;;;6282414;22;20014;-67
2024/03/25 03:22:16;;;;;;;6.53;3.13;;;7.40;90.40;;;;;;6305541;22;20080;-65
2024/03/25 03:24:42;;;;;;;5.23;2.97;;;7.40;90.50;;;;;;6307529;22;20498;-66
2024/03/25 03:27:07;;;;;;;4.70;2.70;;;7.40;90.30;;;;;;6307068;22;20008;-66
2024/03/25 03:29:33;;;;;;;6.43;3.13;;;7.40;90.50;;;;;;6307002;22;20003;-67
2024/03/25 03:31:59;;;;;;;10.77;2.57;;;7.40;90.70;;;;;;6307548;22;20026;-66
2024/03/25 03:34:25;;;;;;;7.63;2.30;;;7.40;90.20;;;;;;6306511;22;20006;-66
2024/03/25 03:36:51;;;;;;;3.57;2.00;;;7.40;90.40;;;;;;6307441;22;20088;-65
2024/03/25 03:39:17;;;;;;;3.20;1.90;;;7.30;90.60;;;;;;6306922;22;19996;-65
2024/03/25 03:41:43;;;;;;;2.70;1.60;;;7.40;90.40;;;;;;6307470;22;20006;-65
2024/03/25 03:44:09;;;;;;;3.27;1.93;;;7.40;90.80;;;;;;6307476;22;20086;-65
2024/03/25 03:46:35;;;;;;;2.63;1.30;;;7.40;90.60;;;;;;6307194;22;20079;-65
2024/03/25 03:49:01;;;;;;;4.00;1.93;;;7.40;90.00;;;;;;6307301;22;20027;-65
2024/03/25 03:51:27;;;;;;;6.30;2.00;;;7.40;89.80;;;;;;6307848;22;19995;-66
2024/03/25 03:53:53;;;;;;;5.13;2.27;;;7.40;89.80;;;;;;6308069;22;20005;-66
2024/03/25 03:56:19;;;;;;;3.43;1.83;;;7.40;90.00;;;;;;6307965;22;20071;-66
2024/03/25 03:58:45;;;;;;;6.40;2.30;;;7.30;89.90;;;;;;6307775;22;20004;-65
2024/03/25 04:01:59;;;;;;;4.63;2.27;;;7.30;90.20;;;;;;6307806;22;20003;-66
2024/03/25 04:04:38;;;;;;;;;;;;;;;;;;;;;
2024/03/25 04:08:03;;;;;;;5.40;2.30;;;7.20;90.70;;;;;;6303486;22;20110;-65
2024/03/25 04:10:32;;;;;;;4.47;2.00;;;7.20;91.30;;;;;;6305661;22;20035;-65
2024/03/25 04:16:22;;;;;;;7.63;2.30;;;7.10;91.00;;;;;;6271128;22;20014;-66
2024/03/25 04:24:01;;;;;;;7.07;2.47;;;7.00;91.20;;;;;;6122417;23;20441;-66
2024/03/25 04:26:33;;;;;;;7.17;2.37;;;7.00;90.90;;;;;;6134741;23;20116;-66
2024/03/25 04:28:59;;;;;;;6.05;2.15;;;7.00;90.90;;;;;;6275210;22;20387;-65
2024/03/25 04:31:25;;;;;;;5.67;2.10;;;7.00;90.90;;;;;;6248711;22;20384;-66
2024/03/25 04:33:51;;;;;;;8.23;2.13;;;6.90;91.40;;;;;;6248761;22;20011;-66
2024/03/25 04:36:17;;;;;;;6.67;3.33;;;6.90;91.20;;;;;;6276121;22;19996;-65
2024/03/25 04:38:42;;;;;;;7.67;3.27;;;6.80;91.10;;;;;;6276046;22;20064;-67
2024/03/25 04:41:08;;;;;;;7.57;3.03;;;6.70;91.30;;;;;;6275855;22;20015;-66
2024/03/25 04:43:34;;;;;;;7.00;2.93;;;6.70;91.60;;;;;;6276351;22;20015;-66
2024/03/25 04:46:03;;;;;;;6.97;2.80;;;6.70;91.80;;;;;;6276411;22;20004;-66
2024/03/25 04:48:29;;;;;;;8.57;2.50;;;6.60;91.60;;;;;;6276029;22;20389;-67
2024/03/25 04:50:55;;;;;;;4.97;2.37;;;6.70;91.70;;;;;;6276119;22;19996;-67
2024/03/25 04:53:21;;;;;;;6.37;2.53;;;6.70;92.00;;;;;;6275682;22;20004;-65
2024/03/25 04:55:46;;;;;;;4.73;2.07;;;6.60;91.80;;;;;;6275563;22;20058;-66
2024/03/25 04:58:12;;;;;;;6.50;1.80;;;6.60;91.90;;;;;;6275410;22;20046;-66
2024/03/25 05:00:38;;;;;;;2.80;1.30;;;6.60;92.10;;;;;;6275714;22;20075;-66
2024/03/25 05:03:04;;;;;;;4.10;1.20;;;6.60;92.20;;;;;;6275703;22;20004;-67
2024/03/25 05:05:30;;;;;;;1.97;1.10;;;6.60;92.30;;;;;;6273469;22;20050;-68
2024/03/25 05:07:55;;;;;;;3.37;1.10;;;6.70;92.60;;;;;;6272240;22;20020;-67
2024/03/25 05:10:21;;;;;;;2.87;1.33;;;6.70;92.90;;;;;;6273829;22;20000;-76
2024/03/25 05:12:49;;;;;;;4.70;1.57;;;6.70;93.40;;;;;;6275974;22;20015;-76
2024/03/25 05:15:15;;;;;;;3.30;1.10;;;6.70;92.90;;;;;;6275885;22;19996;-76
2024/03/25 05:17:41;;;;;;;9.00;1.40;;;6.80;92.90;;;;;;6275653;22;20068;-76
2024/03/25 05:20:07;;;;;;;3.10;1.37;;;6.80;92.00;;;;;;6275198;22;20000;-76
2024/03/25 05:22:33;;;;;;;5.90;1.67;;;6.80;92.00;;;;;;6305915;22;20069;-76
2024/03/25 05:24:59;;;;;;;11.13;2.50;;;6.80;91.20;;;;;;6306676;22;20007;-77
2024/03/25 05:27:24;;;;;;;11.13;2.73;;;6.70;91.10;;;;;;6305627;22;20008;-76
2024/03/25 05:29:50;;;;;;;14.53;2.90;;;6.70;91.30;;;;;;6308084;22;19999;-71
2024/03/25 05:32:17;;;;;;;6.83;2.53;;;6.70;91.30;;;;;;6308418;22;19996;-66
2024/03/25 05:34:43;;;;;;;8.70;2.60;;;6.60;91.90;;;;;;6307946;22;20015;-65
2024/03/25 05:37:09;;;;;;;4.60;2.00;;;6.60;92.00;;;;;;6307718;22;20079;-66
2024/03/25 05:39:35;;;;;;;8.17;2.40;;;6.60;91.90;;;;;;6307036;22;20007;-66
2024/03/25 05:42:01;;;;;;;12.30;2.27;;;6.50;92.30;;;;;;6305820;22;20061;-68
2024/03/25 05:48:45;;;;;;;9.60;2.23;;;6.50;93.10;;;;;;6214168;23;20405;-66
2024/03/25 05:51:47;;;;;;;7.90;2.13;;;6.60;93.10;;;;;;6214060;23;20416;-66
2024/03/25 05:58:32;;;;;;;2.63;1.53;;;6.60;93.50;;;;;;6197441;23;20495;-66
2024/03/25 06:04:56;;;;;;;3.27;1.50;;;6.70;93.50;;;;;;6123999;23;20032;-65
2024/03/25 06:07:37;;;;;;;3.73;1.53;;;6.80;92.60;;;;;;6144180;23;20013;-65
2024/03/25 06:10:06;;;;;;;6.10;1.67;;;6.90;92.10;;;;;;6183781;23;20051;-66
2024/03/25 06:12:32;;;;;;;9.27;1.63;;;7.00;91.70;;;;;;6206893;23;20009;-66
2024/03/25 06:14:58;;;;;;;3.73;1.33;;;7.10;91.60;;;;;;6213943;23;20350;-66
2024/03/25 06:17:24;;;;;;;16.67;2.40;;;7.10;91.70;;;;;;6229885;22;20007;-65
2024/03/25 06:19:51;;;;;;;8.50;2.70;;;7.20;91.70;;;;;;6308092;22;19999;-66
2024/03/25 06:22:17;;;;;;;5.77;2.07;;;7.30;92.20;;;;;;6307819;22;20090;-66
2024/03/25 06:24:44;;;;;;;5.23;1.53;;;7.30;92.00;;;;;;6307136;22;20034;-66
2024/03/25 06:27:10;;;;;;;4.50;1.77;;;7.30;92.60;;;;;;6307208;22;20066;-66
2024/03/25 06:29:35;;;;;;;4.50;1.80;;;7.40;92.60;;;;;;6307528;22;20078;-66
2024/03/25 06:34:46;;;;;;;13.13;1.90;;;7.60;91.40;;;;;;6307762;22;20094;-66
2024/03/25 06:37:12;;;;;;;18.70;2.17;;;7.60;91.60;;;;;;6306298;22;20023;-65
2024/03/25 06:39:37;;;;;;;7.70;1.90;;;7.70;91.20;;;;;;6304209;22;20007;-65
2024/03/25 06:42:03;;;;;;;5.50;1.70;;;7.80;91.30;;;;;;6305490;22;20007;-65
2024/03/25 06:44:29;;;;;;;8.77;1.70;;;7.80;91.90;;;;;;6307107;22;20078;-66
2024/03/25 06:46:55;;;;;;;3.83;1.63;;;7.90;92.00;;;;;;6307042;22;20021;-67
2024/03/25 06:49:21;;;;;;;7.40;1.90;;;7.90;91.80;;;;;;6307495;22;20027;-64
2024/03/25 06:51:47;;;;;;;10.10;2.87;;;8.00;92.10;;;;;;6307626;22;20002;-67
2024/03/25 06:54:13;;;;;;;6.83;2.47;;;8.00;91.90;;;;;;6307691;22;20042;-64
2024/03/25 06:56:40;;;;;;;4.23;1.87;;;8.10;91.40;;;;;;6307316;22;20061;-65
2024/03/25 06:59:06;;;;;;;14.70;2.13;;;8.20;91.20;;;;;;6305779;22;20433;-65
2024/03/25 07:01:32;;;;;;;8.10;2.53;;;8.30;91.20;;;;;;6307892;22;20008;-66
2024/03/25 07:03:57;;;;;;;7.27;1.80;;;8.40;91.00;;;;;;6307137;22;20068;-66
2024/03/25 07:06:25;;;;;;;8.27;2.20;;;8.40;90.30;;;;;;6306517;22;20003;-66
2024/03/25 07:08:51;;;;;;;7.53;1.80;;;8.60;90.20;;;;;;6303561;22;20015;-67
2024/03/25 07:11:17;;;;;;;3.83;1.80;;;8.60;90.00;;;;;;6303231;22;20003;-66
2024/03/25 07:13:43;;;;;;;4.03;1.53;;;8.70;90.10;;;;;;6303202;22;20507;-65
2024/03/25 07:16:09;;;;;;;2.77;1.47;;;8.80;89.60;;;;;;6304502;22;20053;-66
2024/03/25 07:18:35;;;;;;;5.50;1.37;;;8.90;88.50;;;;;;6308048;22;20425;-66
2024/03/25 07:21:00;;;;;;;7.27;1.60;;;9.00;88.20;;;;;;6308388;22;20034;-67
2024/03/25 07:23:27;;;;;;;3.70;1.60;;;9.00;87.60;;;;;;6307504;22;20037;-67
2024/03/25 07:26:03;;;;;;;;;;;;;;;;;;;;;
2024/03/25 07:30:00;;;;;;;;;;;;;;;;;;;;;
2024/03/25 07:31:53;;;;;;;7.47;1.80;;;9.30;86.40;;;;;;6272306;22;20010;-65
2024/03/25 07:34:19;;;;;;;4.07;1.50;;;9.40;86.20;;;;;;6307766;22;20007;-66
2024/03/25 07:37:25;;;;;;;3.00;1.20;;;9.50;86.30;;;;;;6307447;22;20508;-65
2024/03/25 07:40:19;;;;;;;;;;;;;;;;;;;;;
2024/03/25 07:42:51;;;;;;;3.37;1.40;;;9.70;85.40;;;;;;6283458;22;20098;-65
2024/03/25 07:45:17;;;;;;;5.93;1.20;;;9.90;84.90;;;;;;6307813;22;20003;-66
2024/03/25 07:47:43;;;;;;;4.20;1.10;;;9.90;84.40;;;;;;6307478;22;20134;-67
2024/03/25 07:50:35;;;;;;;2.90;1.43;;;10.00;84.20;;;;;;6307526;22;19995;-66
2024/03/25 07:53:12;;;;;;;1.90;1.17;;;10.10;84.60;;;;;;6277453;22;20007;-66
2024/03/25 07:55:39;;;;;;;5.25;0.85;;;10.20;84.10;;;;;;6307914;22;20003;-66
2024/03/25 07:58:05;;;;;;;4.63;1.03;;;10.20;83.60;;;;;;6306900;22;20014;-65
2024/03/25 08:00:31;;;;;;;2.30;1.00;;;10.30;83.00;;;;;;6307195;22;20010;-66
2024/03/25 08:02:57;;;;;;;3.33;1.17;;;10.40;81.90;;;;;;6307374;22;20023;-67
2024/03/25 08:05:23;;;;;;;2.63;0.80;;;10.50;81.30;;;;;;6307431;22;20078;-66
2024/03/25 08:07:48;;;;;;;2.40;0.97;;;10.50;80.00;;;;;;6306937;22;20069;-66
2024/03/25 08:10:14;;;;;;;1.70;0.90;;;10.60;79.50;;;;;;6306969;22;20003;-66
2024/03/25 08:12:40;;;;;;;2.50;0.98;;;10.70;80.10;;;;;;6307193;22;20003;-66
2024/03/25 08:15:06;;;;;;;2.67;1.00;;;10.70;79.30;;;;;;6307229;22;19999;-67
2024/03/25 08:17:32;;;;;;;1.33;0.70;;;10.80;78.60;;;;;;6307261;22;19999;-66
2024/03/25 08:19:57;;;;;;;2.30;1.00;;;10.90;77.70;;;;;;6307097;22;20049;-66
2024/03/25 08:22:23;;;;;;;2.17;0.80;;;10.90;78.70;;;;;;6306718;22;20029;-68
2024/03/25 08:24:49;;;;;;;1.98;0.82;;;11.00;77.90;;;;;;6307371;22;20041;-67
2024/03/25 08:27:15;;;;;;;3.50;0.88;;;11.10;76.80;;;;;;6307256;22;20444;-66
2024/03/25 08:29:41;;;;;;;1.67;0.80;;;11.20;77.20;;;;;;6307229;22;20000;-66
2024/03/25 08:32:06;;;;;;;0.88;0.55;;;11.30;77.40;;;;;;6307340;22;19999;-66
2024/03/25 08:34:32;;;;;;;2.28;0.98;;;11.30;76.90;;;;;;6307295;22;20067;-67
2024/03/25 08:36:58;;;;;;;1.75;0.75;;;11.40;76.40;;;;;;6307143;22;20074;-76
2024/03/25 08:39:24;;;;;;;2.88;0.68;;;11.50;77.20;;;;;;6307116;22;20010;-75
2024/03/25 08:41:49;;;;;;;2.00;0.60;;;11.60;75.90;;;;;;6307213;22;20070;-76
2024/03/25 08:44:15;;;;;;;1.63;0.77;;;11.60;76.10;;;;;;6307249;22;20095;-76
2024/03/25 08:46:41;;;;;;;1.42;0.80;;;11.70;75.80;;;;;;6307283;22;20002;-77
2024/03/25 08:49:06;;;;;;;1.30;0.70;;;11.70;76.00;;;;;;6307067;22;20026;-75
2024/03/25 08:51:32;;;;;;;3.17;0.55;;;11.80;75.50;;;;;;6307209;22;20000;-76
2024/03/25 08:53:58;;;;;;;1.27;0.70;;;11.90;74.50;;;;;;6307384;22;19999;-74
2024/03/25 08:56:24;;;;;;;2.80;0.70;;;12.00;73.20;;;;;;6307258;22;20007;-76
2024/03/25 08:58:50;;;;;;;3.53;0.65;;;12.10;72.20;;;;;;6307823;22;19999;-67
2024/03/25 09:01:16;;;;;;;1.92;0.80;;;12.10;72.20;;;;;;6307662;22;20004;-66
2024/03/25 09:03:42;;;;;;;1.98;0.50;;;12.10;71.10;;;;;;6308380;22;20026;-66
2024/03/25 09:06:08;;;;;;;1.25;0.50;;;12.20;70.40;;;;;;6310041;22;20007;-66
2024/03/25 09:11:02;;;;;;;4.20;0.68;;;12.20;69.80;;;;;;6281801;22;20023;-66
2024/03/25 09:14:24;;;;;;;2.72;0.65;;;12.30;70.40;;;;;;6291933;22;20007;-66
2024/03/25 09:17:40;;;;;;;6.72;1.02;;;12.40;70.80;;;;;;6309155;22;20385;-66
2024/03/25 09:23:58;;;;;;;1.67;0.88;;;12.50;71.20;;;;;;6272478;22;20030;-66
2024/03/25 09:27:05;;;;;;;3.78;0.70;;;12.60;70.10;;;;;;6277874;22;20004;-65
2024/03/25 09:29:43;;;;;;;2.38;0.70;;;12.70;70.40;;;;;;6154625;23;20415;-67
2024/03/25 09:32:12;;;;;;;1.02;0.50;;;12.70;69.60;;;;;;6154383;23;20376;-66
2024/03/25 09:37:52;;;;;;;4.45;1.00;;;12.80;69.00;;;;;;6154653;23;20400;-67
2024/03/25 09:40:18;;;;;;;6.90;1.70;;;12.90;67.70;;;;;;6154461;23;20010;-66
2024/03/25 09:42:49;;;;;;;10.10;0.85;;;13.00;65.00;;;;;;6244532;22;20323;-66
2024/03/25 09:45:18;;;;;;;3.45;0.60;;;13.00;64.10;;;;;;6277898;22;20323;-65
2024/03/25 09:47:47;;;;;;;7.25;1.67;;;13.00;61.00;;;;;;6277567;22;20369;-66
2024/03/25 09:50:19;;;;;;;2.72;0.60;;;13.10;60.10;;;;;;6277836;22;20365;-65
2024/03/25 09:52:45;;;;;;;5.03;0.80;;;13.10;61.10;;;;;;6277204;22;20014;-65
2024/03/25 09:55:11;;;;;;;1.95;0.50;;;13.20;61.60;;;;;;6277432;22;19996;-64
2024/03/25 09:57:41;;;;;;;4.15;0.70;;;13.20;61.40;;;;;;6277722;22;20134;-66
2024/03/25 10:00:10;;;;;;;0.63;0.40;;;13.30;59.50;;;;;;6277366;22;20322;-66
2024/03/25 10:02:38;;;;;;;0.85;0.40;;;13.40;54.40;;;;;;6277928;22;20080;-66
2024/03/25 10:05:05;;;;;;;0.52;0.25;;;13.40;55.00;;;;;;6277469;22;20507;-67
2024/03/25 10:07:31;;;;;;;1.00;0.50;;;13.40;56.20;;;;;;6277500;22;20501;-67
2024/03/25 10:09:58;;;;;;;1.30;0.50;;;13.50;58.00;;;;;;6277583;22;20031;-66
2024/03/25 10:12:24;;;;;;;0.95;0.32;;;13.50;55.80;;;;;;6277524;22;20426;-66
2024/03/25 10:14:50;;;;;;;0.30;0.30;;;13.60;55.50;;;;;;6276863;22;20414;-67
2024/03/25 10:17:16;;;;;;;1.05;0.30;;;13.60;54.30;;;;;;6277281;22;20000;-67
2024/03/25 10:19:42;;;;;;;1.15;0.40;;;13.70;53.00;;;;;;6277484;22;20000;-66
2024/03/25 10:22:09;;;;;;;1.13;0.30;;;13.80;50.90;;;;;;6290963;22;20015;-67
2024/03/25 10:24:42;;;;;;;0.35;0.30;;;13.80;46.00;;;;;;6308229;22;20053;-65
2024/03/25 10:27:19;;;;;;;1.55;0.50;;;13.90;49.50;;;;;;6306520;22;20501;-66
2024/03/25 10:29:51;;;;;;;0.25;0.20;;;14.00;47.70;;;;;;6308136;22;20477;-66
2024/03/25 10:32:17;;;;;;;0.73;0.40;;;14.00;47.80;;;;;;6308332;22;20321;-65
2024/03/25 10:34:43;;;;;;;1.05;0.63;;;14.10;46.50;;;;;;6308329;22;20078;-66
2024/03/25 10:37:10;;;;;;;5.82;1.00;;;14.20;49.60;;;;;;6308398;22;20366;-66
2024/03/25 10:39:56;;;;;;;2.15;0.80;;;14.20;52.30;;;;;;6308293;22;20122;-65
2024/03/25 10:42:23;;;;;;;1.30;0.57;;;14.30;53.30;;;;;;6308249;22;19996;-66
2024/03/25 10:44:52;;;;;;;0.88;0.63;;;14.20;50.90;;;;;;6307477;22;20329;-66
2024/03/25 10:47:21;;;;;;;1.65;0.70;;;14.20;53.40;;;;;;6309152;22;20092;-66
2024/03/25 10:49:57;;;;;;;1.50;0.80;;;14.20;54.90;;;;;;6309425;22;20030;-66
2024/03/25 10:52:26;;;;;;;2.42;1.00;;;14.30;54.50;;;;;;6308604;22;20011;-66
2024/03/25 10:54:59;;;;;;;3.40;0.70;;;14.40;54.70;;;;;;6309036;22;20413;-66
2024/03/25 10:57:43;;;;;;;1.63;0.80;;;14.50;56.70;;;;;;6308295;22;20010;-66
2024/03/25 11:00:36;;;;;;;3.33;0.80;;;14.60;56.40;;;;;;6308385;22;20303;-66
2024/03/25 11:03:09;;;;;;;2.03;0.60;;;14.70;55.70;;;;;;6303488;22;20011;-66
2024/03/25 11:09:37;;;;;;;2.88;0.77;;;14.90;55.20;;;;;;6291982;22;19907;-66
2024/03/25 11:12:32;;;;;;;1.80;0.60;;;14.90;56.60;;;;;;6306830;22;20387;-66
2024/03/25 11:15:37;;;;;;;0.43;0.40;;;15.10;55.20;;;;;;6300704;22;20003;-66
2024/03/25 11:18:38;;;;;;;2.65;0.60;;;15.10;51.50;;;;;;6253977;22;20083;-65
2024/03/25 11:21:49;;;;;;;2.55;0.60;;;15.20;53.50;;;;;;6182773;23;20410;-65
2024/03/25 11:24:30;;;;;;;2.35;0.47;;;15.30;53.80;;;;;;6093993;23;20017;-74
2024/03/25 11:27:13;;;;;;;2.17;0.75;;;15.40;53.40;;;;;;6172941;23;20013;-76
2024/03/25 11:29:41;;;;;;;2.47;0.52;;;15.40;51.70;;;;;;6183261;23;20404;-67
2024/03/25 11:32:07;;;;;;;1.15;0.50;;;15.50;51.70;;;;;;6264810;22;20332;-74
2024/03/25 11:34:35;;;;;;;4.93;0.47;;;15.50;48.20;;;;;;6338396;22;19998;-69
2024/03/25 11:37:01;;;;;;;3.05;0.50;;;15.60;49.70;;;;;;6338857;22;20089;-75
2024/03/25 11:39:28;;;;;;;1.50;0.60;;;15.60;49.30;;;;;;6339035;22;20320;-75
2024/03/25 11:41:54;;;;;;;0.88;0.47;;;15.70;47.60;;;;;;6339178;22;20370;-76
2024/03/25 11:44:23;;;;;;;1.40;0.30;;;15.70;48.50;;;;;;6339578;22;20003;-75
2024/03/25 11:46:50;;;;;;;0.50;0.30;;;15.70;47.20;;;;;;6338201;22;20378;-75
2024/03/25 11:49:19;;;;;;;2.45;0.40;;;15.80;46.50;;;;;;6337775;22;20302;-76
2024/03/25 11:51:46;;;;;;;0.35;0.30;;;15.80;47.50;;;;;;6338198;22;20002;-75
2024/03/25 11:54:12;;;;;;;0.93;0.40;;;15.90;47.60;;;;;;6338897;22;20503;-74
2024/03/25 11:56:38;;;;;;;1.08;0.40;;;15.90;47.00;;;;;;6338611;22;19995;-71
2024/03/25 11:59:04;;;;;;;0.88;0.50;;;16.00;48.40;;;;;;6337814;22;20451;-71
2024/03/25 12:01:31;;;;;;;1.58;0.40;;;16.00;47.70;;;;;;6337913;22;19999;-75
2024/03/25 12:03:57;;;;;;;0.50;0.35;;;16.10;48.00;;;;;;6338679;22;20435;-75
2024/03/25 12:06:23;;;;;;;0.40;0.30;;;16.20;47.50;;;;;;6338729;22;20440;-74
2024/03/25 12:11:33;;;;;;;1.55;0.57;;;16.30;45.70;;;;;;6338377;22;20014;-76
2024/03/25 12:14:00;;;;;;;1.60;0.43;;;16.40;45.10;;;;;;6338501;22;19995;-75
2024/03/25 12:16:26;;;;;;;0.82;0.38;;;16.40;47.20;;;;;;6338444;22;20022;-75
2024/03/25 12:18:55;;;;;;;0.60;0.30;;;16.40;44.00;;;;;;6337965;22;20064;-75
2024/03/25 12:21:21;;;;;;;3.90;0.40;;;16.40;44.80;;;;;;6338776;22;20074;-74
2024/03/25 12:23:47;;;;;;;2.08;0.40;;;16.50;45.80;;;;;;6338616;22;20023;-73
2024/03/25 12:26:14;;;;;;;2.20;0.70;;;16.50;45.60;;;;;;6338314;22;20009;-75
2024/03/25 12:28:40;;;;;;;1.60;0.50;;;16.60;43.60;;;;;;6338144;22;20092;-75
2024/03/25 12:31:14;;;;;;;1.02;0.60;;;16.70;44.60;;;;;;6338679;22;20325;-66
2024/03/25 12:33:46;;;;;;;1.38;0.43;;;16.70;45.50;;;;;;6339431;22;20380;-68
2024/03/25 12:36:12;;;;;;;4.13;0.73;;;16.70;46.00;;;;;;6338935;22;20011;-69
2024/03/25 12:38:38;;;;;;;0.77;0.50;;;16.80;47.70;;;;;;6337766;22;20381;-68
2024/03/25 12:41:06;;;;;;;0.80;0.47;;;16.90;47.80;;;;;;6338098;22;20003;-74
2024/03/25 12:43:33;;;;;;;1.40;0.43;;;16.90;46.00;;;;;;6337582;22;20010;-73
2024/03/25 12:46:03;;;;;;;1.58;0.63;;;16.90;45.90;;;;;;6337719;22;19995;-70
2024/03/25 12:49:12;;;;;;;0.70;0.30;;;16.90;44.00;;;;;;6337476;22;20019;-71
2024/03/25 12:52:50;;;;;;;1.65;0.60;;;16.90;43.60;;;;;;6335933;22;20007;-73
2024/03/25 12:58:49;;;;;;;;;;;;;;;;;;;;;
2024/03/25 13:04:41;;;;;;;0.55;0.20;;;17.10;41.40;;;;;;6238810;23;20583;-72
2024/03/25 13:07:42;;;;;;;1.08;0.40;;;17.00;38.30;;;;;;6317506;22;20015;-73
2024/03/25 13:10:08;;;;;;;0.75;0.38;;;16.90;39.80;;;;;;6270938;22;20015;-71
2024/03/25 13:12:35;;;;;;;2.15;0.68;;;16.90;41.70;;;;;;6334790;22;20014;-73
2024/03/25 13:15:00;;;;;;;3.58;0.52;;;16.90;43.60;;;;;;6338412;22;20336;-74
2024/03/25 13:17:26;;;;;;;0.63;0.40;;;16.90;43.70;;;;;;6338396;22;20091;-73
2024/03/25 13:19:52;;;;;;;1.23;0.30;;;16.90;44.20;;;;;;6337311;22;20015;-76
2024/03/25 13:22:18;;;;;;;4.28;0.22;;;16.90;41.90;;;;;;6334457;22;19999;-72
2024/03/25 13:24:44;;;;;;;3.00;0.30;;;16.90;41.60;;;;;;6334519;22;20010;-72
2024/03/25 13:27:09;;;;;;;0.98;0.30;;;16.90;41.20;;;;;;6337603;22;20011;-68
2024/03/25 13:29:37;;;;;;;2.10;0.30;;;16.90;39.00;;;;;;6337950;22;19999;-69
2024/03/25 13:32:03;;;;;;;5.57;0.40;;;17.00;41.70;;;;;;6338456;22;20007;-72
2024/03/25 13:34:29;;;;;;;0.52;0.30;;;17.00;40.80;;;;;;6338139;22;20421;-67
2024/03/25 13:36:55;;;;;;;4.95;0.28;;;17.00;39.50;;;;;;6337763;22;20317;-69
2024/03/25 13:39:20;;;;;;;0.55;0.20;;;17.00;38.30;;;;;;6338324;22;20003;-72
2024/03/25 13:41:47;;;;;;;0.80;0.30;;;17.00;39.10;;;;;;6338050;22;19999;-71
2024/03/25 13:44:12;;;;;;;0.10;0.10;;;17.10;41.50;;;;;;6337915;22;20003;-69
2024/03/25 13:46:38;;;;;;;0.30;0.20;;;17.10;44.10;;;;;;6337844;22;20077;-67
2024/03/25 13:49:04;;;;;;;2.00;0.45;;;17.10;44.40;;;;;;6337721;22;20015;-68
2024/03/25 13:51:30;;;;;;;7.95;2.30;;;17.20;42.40;;;;;;6339246;22;20080;-67
2024/03/25 13:53:55;;;;;;;1.27;0.68;;;17.20;37.30;;;;;;6339845;22;20011;-69
2024/03/25 13:56:21;;;;;;;1.60;0.80;;;17.20;37.20;;;;;;6339598;22;20003;-71
2024/03/25 13:58:47;;;;;;;0.90;0.30;;;17.20;37.50;;;;;;6339877;22;20007;-77
2024/03/25 14:01:13;;;;;;;0.25;0.20;;;17.20;40.20;;;;;;6339338;22;19995;-80
2024/03/25 14:03:38;;;;;;;0.40;0.10;;;17.30;40.20;;;;;;6339288;22;19999;-80
2024/03/25 14:06:05;;;;;;;1.65;0.30;;;17.30;37.00;;;;;;6338841;22;19999;-77
2024/03/25 14:08:31;;;;;;;0.30;0.20;;;17.30;33.80;;;;;;6338175;22;20487;-79
2024/03/25 14:11:01;;;;;;;1.23;0.45;;;17.30;34.30;;;;;;6339103;22;20010;-78
2024/03/25 14:13:27;;;;;;;0.45;0.20;;;17.20;36.40;;;;;;6339386;22;20014;-80